Hlavní strana
METAR-TAF:

METAR-TAF

Letiště :

Ouargla, Alžírsko

zeměpisná šířka: 31-55N, zeměpisná délka: 005-24E, výška: 141 m

Aktuální stav počasí

Zpráva byla vytvořena před 30 minutami, v 11:00 UTC
Východní vítr 12 kt
Teplota 30°C
Vlhkost vzduchu 14%
Tlak 1004 hPa
Viditelnost: 8000 m
Skoro jasno ve výšce 4600 ft
Polojasno ve výšce 23300 ft

METAR: DAUU 151100Z 09012KT 8000 FEW046 SCT233 30/00 Q1004

Čas: 12:30 (11:30 UTC)

Předpověď počasí

Zpráva byla vytvořena před 3 hodinami a 30 minutami, v 08:00 UTC
Předpověď platná od 15 v 09 UTC do 15 v 18 UTC
Východní vítr 14 kt
Viditelnost 10 km a více
Skoro jasno ve výšce 3300 ft
Polojasno ve výšce 4000 ft
Pravděpodobnost 40% :
Dočasný
od 15 v 09 UTC do 15 v 12 UTC
Východní vítr 24 kt
Viditelnost: 2000 m
nízko zvířený písek
Změna
od 15 v 15 UTC do 15 v 18 UTC
Západojihozápadní vítr 10 kt

TAF: DAUU 150800Z 1509/1518 08014KT 9999 FEW033 SCT040 PROB40 TEMPO 1509/1512 10024KT 2000 DRSA BECMG 1515/1518 25010KT

Stav a předpovědi počasí z více než 4 000 letišť (zprávy METAR a TAF).

Červené a žluté tečky na mapě představují dostupné meteorologické stanice.

Když kurzor umístíte na tečku, zobrazí se název stanice.

Pak kliknutím zobrazíte stav a předpověď počasí.

Chcete-li změnit mapu, kliknutím na zelené tlačítko se znaménkem +mapu přiblížíte, kliknutím na zelené tlačítko se znaménkem – mapu oddálíte a kliknutím na zelené šipky přejdete na sousední mapy.


METAR-TAF: